Arcadia, Ohio
Current Conditions -  °F | °C
As of 3:53 AM on Friday 19 Dec 2014 (Local Time) from KFDY Reporting Station
Haze Haze  
Wind Chill: -6°   Ceiling: 2600
Heat Index: -2°   Visibility: 6mi
Dew Point: -4°   Wind: 8mph
Humidity: 82%   Direction: 270°W
Pressure: 30.21"   Gusts: NA
Location:  41.11°N, 83.52°W
Report Text: KFDY 190853Z AUTO 27007KT 6SM HZ OVC026 M02/M04 A3021 RMK AO2 SLP236 T10171044 53004
Loading
Personal Weather Stations






























Interactive Weather Map New forecast layout! Learn more

10-Day Weather Forecast

Advertisements
Track Severe Weather on mobile